Terminal Aerodrome Forecast
Issued by NWS

Home | Current Version | Previous Version | Text Only | Print | Product List | Glossary On
Versions: 1 2 3 4 5 6 7 8 9 10 11 12 13 14
000
FTUS42 TJSJ 281736
TAFNCM
TAF
TNCM 281736Z 2818/2918 11012KT P6SM SCT018
     FM282300 08011KT P6SM VCSH SCT018
     FM291400 11014KT P6SM VCSH SCT018 SCT035=

USA.gov is the U.S. government's official web portal to all federal, state and local government web resources and services.